sensor_id;sensor_type;location;lat;lon;timestamp;pressure;altitude;pressure_sealevel;temperature
68745;BMP180;66104;45.456;11.064;2023-04-23T00:00:16;100357.80;;;16.00
68745;BMP180;66104;45.456;11.064;2023-04-23T00:02:59;100353.00;;;16.00
68745;BMP180;66104;45.456;11.064;2023-04-23T00:05:41;100351.80;;;16.00
68745;BMP180;66104;45.456;11.064;2023-04-23T00:08:20;100349.80;;;16.00
68745;BMP180;66104;45.456;11.064;2023-04-23T00:11:04;100348.00;;;15.90
68745;BMP180;66104;45.456;11.064;2023-04-23T00:13:45;100347.00;;;15.90
68745;BMP180;66104;45.456;11.064;2023-04-23T00:16:27;100349.80;;;15.90
68745;BMP180;66104;45.456;11.064;2023-04-23T00:19:04;100342.40;;;15.90
68745;BMP180;66104;45.456;11.064;2023-04-23T00:21:42;100345.60;;;15.90
68745;BMP180;66104;45.456;11.064;2023-04-23T00:24:21;100343.00;;;15.90
68745;BMP180;66104;45.456;11.064;2023-04-23T00:27:01;100340.60;;;15.90
68745;BMP180;66104;45.456;11.064;2023-04-23T00:29:39;100344.80;;;15.90
68745;BMP180;66104;45.456;11.064;2023-04-23T00:32:17;100338.20;;;15.86
68745;BMP180;66104;45.456;11.064;2023-04-23T00:34:56;100337.40;;;15.82
68745;BMP180;66104;45.456;11.064;2023-04-23T00:37:32;100335.60;;;15.80
68745;BMP180;66104;45.456;11.064;2023-04-23T00:40:14;100334.40;;;15.80
68745;BMP180;66104;45.456;11.064;2023-04-23T00:42:52;100331.80;;;15.82
68745;BMP180;66104;45.456;11.064;2023-04-23T00:45:30;100333.40;;;15.80
68745;BMP180;66104;45.456;11.064;2023-04-23T00:48:08;100334.80;;;15.80
68745;BMP180;66104;45.456;11.064;2023-04-23T00:50:47;100332.60;;;15.80
68745;BMP180;66104;45.456;11.064;2023-04-23T00:53:27;100331.80;;;15.80
68745;BMP180;66104;45.456;11.064;2023-04-23T00:56:07;100324.00;;;15.80
68745;BMP180;66104;45.456;11.064;2023-04-23T00:58:45;100323.00;;;15.80
68745;BMP180;66104;45.456;11.064;2023-04-23T01:01:23;100327.40;;;15.80
68745;BMP180;66104;45.456;11.064;2023-04-23T01:04:01;100326.40;;;15.80
68745;BMP180;66104;45.456;11.064;2023-04-23T01:06:39;100326.80;;;15.80
68745;BMP180;66104;45.456;11.064;2023-04-23T01:09:18;100325.20;;;15.80
68745;BMP180;66104;45.456;11.064;2023-04-23T01:11:56;100329.40;;;15.80
68745;BMP180;66104;45.456;11.064;2023-04-23T01:14:35;100326.60;;;15.80
68745;BMP180;66104;45.456;11.064;2023-04-23T01:17:14;100317.80;;;15.80
68745;BMP180;66104;45.456;11.064;2023-04-23T01:19:52;100322.00;;;15.80
68745;BMP180;66104;45.456;11.064;2023-04-23T01:22:32;100319.60;;;15.80
68745;BMP180;66104;45.456;11.064;2023-04-23T01:25:12;100311.20;;;15.80
68745;BMP180;66104;45.456;11.064;2023-04-23T01:27:51;100313.00;;;15.76
68745;BMP180;66104;45.456;11.064;2023-04-23T01:30:29;100310.60;;;15.70
68745;BMP180;66104;45.456;11.064;2023-04-23T01:33:09;100309.80;;;15.70
68745;BMP180;66104;45.456;11.064;2023-04-23T01:35:48;100306.80;;;15.70
68745;BMP180;66104;45.456;11.064;2023-04-23T01:38:29;100307.20;;;15.80
68745;BMP180;66104;45.456;11.064;2023-04-23T01:41:08;100307.60;;;15.76
68745;BMP180;66104;45.456;11.064;2023-04-23T01:43:46;100305.20;;;15.70
68745;BMP180;66104;45.456;11.064;2023-04-23T01:46:24;100304.40;;;15.70
68745;BMP180;66104;45.456;11.064;2023-04-23T01:49:02;100304.20;;;15.70
68745;BMP180;66104;45.456;11.064;2023-04-23T01:51:41;100308.20;;;15.70
68745;BMP180;66104;45.456;11.064;2023-04-23T01:54:18;100311.60;;;15.70
68745;BMP180;66104;45.456;11.064;2023-04-23T01:56:56;100313.60;;;15.70
68745;BMP180;66104;45.456;11.064;2023-04-23T01:59:34;100317.60;;;15.68
68745;BMP180;66104;45.456;11.064;2023-04-23T02:02:12;100317.00;;;15.66
68745;BMP180;66104;45.456;11.064;2023-04-23T02:04:50;100318.40;;;15.68
68745;BMP180;66104;45.456;11.064;2023-04-23T02:07:29;100316.80;;;15.62
68745;BMP180;66104;45.456;11.064;2023-04-23T02:10:12;100319.40;;;15.68
68745;BMP180;66104;45.456;11.064;2023-04-23T02:12:50;100319.20;;;15.66
68745;BMP180;66104;45.456;11.064;2023-04-23T02:15:27;100318.80;;;15.60
68745;BMP180;66104;45.456;11.064;2023-04-23T02:18:07;100316.80;;;15.60
68745;BMP180;66104;45.456;11.064;2023-04-23T02:20:44;100318.40;;;15.60
68745;BMP180;66104;45.456;11.064;2023-04-23T02:23:23;100315.60;;;15.50
68745;BMP180;66104;45.456;11.064;2023-04-23T02:26:02;100314.20;;;15.50
68745;BMP180;66104;45.456;11.064;2023-04-23T02:28:42;100314.40;;;15.50
68745;BMP180;66104;45.456;11.064;2023-04-23T02:31:20;100311.60;;;15.50
68745;BMP180;66104;45.456;11.064;2023-04-23T02:33:58;100309.60;;;15.50
68745;BMP180;66104;45.456;11.064;2023-04-23T02:36:37;100309.80;;;15.50
68745;BMP180;66104;45.456;11.064;2023-04-23T02:39:16;100307.60;;;15.50
68745;BMP180;66104;45.456;11.064;2023-04-23T02:41:53;100308.00;;;15.50
68745;BMP180;66104;45.456;11.064;2023-04-23T02:44:32;100306.00;;;15.50
68745;BMP180;66104;45.456;11.064;2023-04-23T02:47:09;100302.80;;;15.50
68745;BMP180;66104;45.456;11.064;2023-04-23T02:49:48;100301.40;;;15.50
68745;BMP180;66104;45.456;11.064;2023-04-23T02:52:26;100302.20;;;15.48
68745;BMP180;66104;45.456;11.064;2023-04-23T02:55:06;100301.80;;;15.40
68745;BMP180;66104;45.456;11.064;2023-04-23T02:57:44;100299.80;;;15.40
68745;BMP180;66104;45.456;11.064;2023-04-23T03:00:23;100300.80;;;15.40
68745;BMP180;66104;45.456;11.064;2023-04-23T03:03:00;100296.80;;;15.40
68745;BMP180;66104;45.456;11.064;2023-04-23T03:05:39;100301.60;;;15.40
68745;BMP180;66104;45.456;11.064;2023-04-23T03:08:17;100302.40;;;15.40
68745;BMP180;66104;45.456;11.064;2023-04-23T03:10:54;100304.60;;;15.40
68745;BMP180;66104;45.456;11.064;2023-04-23T03:13:32;100299.00;;;15.40
68745;BMP180;66104;45.456;11.064;2023-04-23T03:16:14;100298.20;;;15.40
68745;BMP180;66104;45.456;11.064;2023-04-23T03:18:53;100298.20;;;15.40
68745;BMP180;66104;45.456;11.064;2023-04-23T03:21:31;100299.40;;;15.40
68745;BMP180;66104;45.456;11.064;2023-04-23T03:24:09;100298.40;;;15.40
68745;BMP180;66104;45.456;11.064;2023-04-23T03:26:44;100300.00;;;15.40
68745;BMP180;66104;45.456;11.064;2023-04-23T03:29:21;100293.80;;;15.40
68745;BMP180;66104;45.456;11.064;2023-04-23T03:31:58;100290.80;;;15.40
68745;BMP180;66104;45.456;11.064;2023-04-23T03:34:37;100291.60;;;15.40
68745;BMP180;66104;45.456;11.064;2023-04-23T03:37:14;100287.40;;;15.42
68745;BMP180;66104;45.456;11.064;2023-04-23T03:39:52;100288.60;;;15.42
68745;BMP180;66104;45.456;11.064;2023-04-23T03:42:29;100289.80;;;15.44
68745;BMP180;66104;45.456;11.064;2023-04-23T03:45:13;100290.80;;;15.44
68745;BMP180;66104;45.456;11.064;2023-04-23T03:47:50;100293.80;;;15.46
68745;BMP180;66104;45.456;11.064;2023-04-23T03:50:29;100298.80;;;15.40
68745;BMP180;66104;45.456;11.064;2023-04-23T03:53:16;100298.20;;;15.40
68745;BMP180;66104;45.456;11.064;2023-04-23T03:56:22;100296.20;;;15.40
68745;BMP180;66104;45.456;11.064;2023-04-23T03:59:18;100307.00;;;15.38
68745;BMP180;66104;45.456;11.064;2023-04-23T04:01:57;100307.00;;;15.30
68745;BMP180;66104;45.456;11.064;2023-04-23T04:04:35;100302.40;;;15.30
68745;BMP180;66104;45.456;11.064;2023-04-23T04:07:12;100299.60;;;15.20
68745;BMP180;66104;45.456;11.064;2023-04-23T04:09:54;100301.40;;;15.20
68745;BMP180;66104;45.456;11.064;2023-04-23T04:12:32;100301.40;;;15.10
68745;BMP180;66104;45.456;11.064;2023-04-23T04:15:14;100292.80;;;15.10
68745;BMP180;66104;45.456;11.064;2023-04-23T04:17:53;100294.60;;;15.10
68745;BMP180;66104;45.456;11.064;2023-04-23T04:20:29;100296.20;;;15.00
68745;BMP180;66104;45.456;11.064;2023-04-23T04:23:08;100294.00;;;14.90
68745;BMP180;66104;45.456;11.064;2023-04-23T04:25:47;100294.80;;;14.90
68745;BMP180;66104;45.456;11.064;2023-04-23T04:28:24;100300.40;;;14.90
68745;BMP180;66104;45.456;11.064;2023-04-23T04:31:02;100304.40;;;14.90
68745;BMP180;66104;45.456;11.064;2023-04-23T04:33:40;100304.20;;;14.82
68745;BMP180;66104;45.456;11.064;2023-04-23T04:36:17;100306.80;;;14.82
68745;BMP180;66104;45.456;11.064;2023-04-23T04:38:54;100310.00;;;14.88
68745;BMP180;66104;45.456;11.064;2023-04-23T04:41:32;100310.40;;;14.90
68745;BMP180;66104;45.456;11.064;2023-04-23T04:44:08;100309.60;;;14.90
68745;BMP180;66104;45.456;11.064;2023-04-23T04:46:46;100305.40;;;14.90
68745;BMP180;66104;45.456;11.064;2023-04-23T04:49:24;100306.00;;;14.90
68745;BMP180;66104;45.456;11.064;2023-04-23T04:52:02;100311.00;;;14.90
68745;BMP180;66104;45.456;11.064;2023-04-23T04:54:40;100310.80;;;14.80
68745;BMP180;66104;45.456;11.064;2023-04-23T04:57:17;100312.80;;;14.80
68745;BMP180;66104;45.456;11.064;2023-04-23T04:59:55;100312.20;;;14.80
68745;BMP180;66104;45.456;11.064;2023-04-23T05:02:32;100312.80;;;14.90
68745;BMP180;66104;45.456;11.064;2023-04-23T05:05:13;100311.40;;;14.92
68745;BMP180;66104;45.456;11.064;2023-04-23T05:07:51;100314.80;;;15.00
68745;BMP180;66104;45.456;11.064;2023-04-23T05:10:28;100320.00;;;15.00
68745;BMP180;66104;45.456;11.064;2023-04-23T05:13:06;100316.00;;;15.10
68745;BMP180;66104;45.456;11.064;2023-04-23T05:15:45;100319.40;;;15.16
68745;BMP180;66104;45.456;11.064;2023-04-23T05:18:21;100329.00;;;15.20
68745;BMP180;66104;45.456;11.064;2023-04-23T05:20:59;100335.20;;;15.20
68745;BMP180;66104;45.456;11.064;2023-04-23T05:23:38;100328.20;;;15.30
68745;BMP180;66104;45.456;11.064;2023-04-23T05:26:16;100328.80;;;15.30
68745;BMP180;66104;45.456;11.064;2023-04-23T05:28:54;100325.80;;;15.30
68745;BMP180;66104;45.456;11.064;2023-04-23T05:31:32;100333.00;;;15.40
68745;BMP180;66104;45.456;11.064;2023-04-23T05:34:11;100334.40;;;15.42
68745;BMP180;66104;45.456;11.064;2023-04-23T05:36:48;100334.40;;;15.50
68745;BMP180;66104;45.456;11.064;2023-04-23T05:39:27;100335.00;;;15.60
68745;BMP180;66104;45.456;11.064;2023-04-23T05:42:05;100324.80;;;15.70
68745;BMP180;66104;45.456;11.064;2023-04-23T05:44:43;100331.40;;;15.80
68745;BMP180;66104;45.456;11.064;2023-04-23T05:47:21;100330.00;;;15.90
68745;BMP180;66104;45.456;11.064;2023-04-23T05:50:00;100320.80;;;16.02
68745;BMP180;66104;45.456;11.064;2023-04-23T05:52:38;100319.00;;;16.18
68745;BMP180;66104;45.456;11.064;2023-04-23T05:55:17;100318.60;;;16.22
68745;BMP180;66104;45.456;11.064;2023-04-23T05:57:56;100316.00;;;16.30
68745;BMP180;66104;45.456;11.064;2023-04-23T06:00:36;100321.00;;;16.40
68745;BMP180;66104;45.456;11.064;2023-04-23T06:03:15;100320.40;;;16.50
68745;BMP180;66104;45.456;11.064;2023-04-23T06:05:55;100327.60;;;16.60
68745;BMP180;66104;45.456;11.064;2023-04-23T06:08:34;100328.60;;;16.60
68745;BMP180;66104;45.456;11.064;2023-04-23T06:11:13;100330.80;;;16.60
68745;BMP180;66104;45.456;11.064;2023-04-23T06:13:51;100333.60;;;16.70
68745;BMP180;66104;45.456;11.064;2023-04-23T06:16:31;100330.60;;;16.80
68745;BMP180;66104;45.456;11.064;2023-04-23T06:19:09;100326.80;;;16.90
68745;BMP180;66104;45.456;11.064;2023-04-23T06:21:48;100327.80;;;16.90
68745;BMP180;66104;45.456;11.064;2023-04-23T06:24:27;100324.20;;;16.92
68745;BMP180;66104;45.456;11.064;2023-04-23T06:27:06;100326.00;;;16.90
68745;BMP180;66104;45.456;11.064;2023-04-23T06:29:44;100321.20;;;16.90
68745;BMP180;66104;45.456;11.064;2023-04-23T06:32:22;100324.20;;;16.90
68745;BMP180;66104;45.456;11.064;2023-04-23T06:35:00;100330.80;;;16.80
68745;BMP180;66104;45.456;11.064;2023-04-23T06:37:41;100324.60;;;16.80
68745;BMP180;66104;45.456;11.064;2023-04-23T06:40:20;100329.00;;;16.70
68745;BMP180;66104;45.456;11.064;2023-04-23T06:42:58;100334.20;;;16.70
68745;BMP180;66104;45.456;11.064;2023-04-23T06:46:14;100333.80;;;16.70
68745;BMP180;66104;45.456;11.064;2023-04-23T06:48:51;100335.80;;;16.78
68745;BMP180;66104;45.456;11.064;2023-04-23T06:51:30;100338.80;;;16.80
68745;BMP180;66104;45.456;11.064;2023-04-23T06:54:10;100337.60;;;16.84
68745;BMP180;66104;45.456;11.064;2023-04-23T06:56:48;100339.60;;;16.90
68745;BMP180;66104;45.456;11.064;2023-04-23T06:59:26;100341.00;;;16.88
68745;BMP180;66104;45.456;11.064;2023-04-23T07:02:04;100342.00;;;16.84
68745;BMP180;66104;45.456;11.064;2023-04-23T07:04:43;100342.40;;;16.80
68745;BMP180;66104;45.456;11.064;2023-04-23T07:07:21;100341.80;;;16.80
68745;BMP180;66104;45.456;11.064;2023-04-23T07:09:57;100344.60;;;16.82
68745;BMP180;66104;45.456;11.064;2023-04-23T07:12:35;100344.20;;;16.90
68745;BMP180;66104;45.456;11.064;2023-04-23T07:15:15;100338.60;;;17.00
68745;BMP180;66104;45.456;11.064;2023-04-23T07:17:52;100340.60;;;17.10
68745;BMP180;66104;45.456;11.064;2023-04-23T07:20:29;100340.80;;;17.20
68745;BMP180;66104;45.456;11.064;2023-04-23T07:23:07;100336.40;;;17.30
68745;BMP180;66104;45.456;11.064;2023-04-23T07:25:46;100335.20;;;17.40
68745;BMP180;66104;45.456;11.064;2023-04-23T07:28:23;100334.80;;;17.44
68745;BMP180;66104;45.456;11.064;2023-04-23T07:31:02;100335.00;;;17.50
68745;BMP180;66104;45.456;11.064;2023-04-23T07:33:42;100336.80;;;17.52
68745;BMP180;66104;45.456;11.064;2023-04-23T07:36:19;100340.60;;;17.60
68745;BMP180;66104;45.456;11.064;2023-04-23T07:38:56;100336.00;;;17.70
68745;BMP180;66104;45.456;11.064;2023-04-23T07:41:33;100333.20;;;17.80
68745;BMP180;66104;45.456;11.064;2023-04-23T07:44:09;100327.80;;;18.00
68745;BMP180;66104;45.456;11.064;2023-04-23T07:46:46;100326.80;;;18.12
68745;BMP180;66104;45.456;11.064;2023-04-23T07:49:23;100328.20;;;18.30
68745;BMP180;66104;45.456;11.064;2023-04-23T07:52:01;100335.60;;;18.44
68745;BMP180;66104;45.456;11.064;2023-04-23T07:54:38;100331.60;;;18.60
68745;BMP180;66104;45.456;11.064;2023-04-23T07:57:15;100335.60;;;18.70
68745;BMP180;66104;45.456;11.064;2023-04-23T07:59:53;100333.80;;;18.80
68745;BMP180;66104;45.456;11.064;2023-04-23T08:02:30;100336.60;;;18.90
68745;BMP180;66104;45.456;11.064;2023-04-23T08:05:11;100335.20;;;19.00
68745;BMP180;66104;45.456;11.064;2023-04-23T08:07:48;100335.60;;;19.00
68745;BMP180;66104;45.456;11.064;2023-04-23T08:10:25;100336.40;;;19.10
68745;BMP180;66104;45.456;11.064;2023-04-23T08:13:02;100333.40;;;19.20
68745;BMP180;66104;45.456;11.064;2023-04-23T08:15:39;100332.80;;;19.28
68745;BMP180;66104;45.456;11.064;2023-04-23T08:18:16;100329.20;;;19.30
68745;BMP180;66104;45.456;11.064;2023-04-23T08:20:53;100333.60;;;19.40
68745;BMP180;66104;45.456;11.064;2023-04-23T08:23:28;100332.20;;;19.50
68745;BMP180;66104;45.456;11.064;2023-04-23T08:26:05;100336.80;;;19.56
68745;BMP180;66104;45.456;11.064;2023-04-23T08:28:40;100332.40;;;19.60
68745;BMP180;66104;45.456;11.064;2023-04-23T08:31:17;100327.00;;;19.70
68745;BMP180;66104;45.456;11.064;2023-04-23T08:34:00;100328.20;;;19.80
68745;BMP180;66104;45.456;11.064;2023-04-23T08:36:39;100317.80;;;19.80
68745;BMP180;66104;45.456;11.064;2023-04-23T08:39:16;100320.20;;;19.80
68745;BMP180;66104;45.456;11.064;2023-04-23T08:41:57;100315.20;;;19.86
68745;BMP180;66104;45.456;11.064;2023-04-23T08:44:39;100310.60;;;19.90
68745;BMP180;66104;45.456;11.064;2023-04-23T08:47:20;100311.40;;;20.00
68745;BMP180;66104;45.456;11.064;2023-04-23T08:50:03;100317.80;;;20.10
68745;BMP180;66104;45.456;11.064;2023-04-23T08:52:45;100319.20;;;20.20
68745;BMP180;66104;45.456;11.064;2023-04-23T08:55:22;100321.80;;;20.26
68745;BMP180;66104;45.456;11.064;2023-04-23T08:58:02;100318.00;;;20.30
68745;BMP180;66104;45.456;11.064;2023-04-23T09:00:40;100314.00;;;20.30
68745;BMP180;66104;45.456;11.064;2023-04-23T09:03:18;100310.80;;;20.34
68745;BMP180;66104;45.456;11.064;2023-04-23T09:05:55;100309.20;;;20.40
68745;BMP180;66104;45.456;11.064;2023-04-23T09:08:34;100306.00;;;20.50
68745;BMP180;66104;45.456;11.064;2023-04-23T09:11:11;100307.20;;;20.56
68745;BMP180;66104;45.456;11.064;2023-04-23T09:13:50;100313.80;;;20.50
68745;BMP180;66104;45.456;11.064;2023-04-23T09:16:27;100306.80;;;20.60
68745;BMP180;66104;45.456;11.064;2023-04-23T09:19:05;100308.60;;;20.60
68745;BMP180;66104;45.456;11.064;2023-04-23T09:21:43;100304.80;;;20.70
68745;BMP180;66104;45.456;11.064;2023-04-23T09:24:22;100298.40;;;20.80
68745;BMP180;66104;45.456;11.064;2023-04-23T09:27:01;100298.00;;;20.80
68745;BMP180;66104;45.456;11.064;2023-04-23T09:29:37;100292.20;;;20.90
68745;BMP180;66104;45.456;11.064;2023-04-23T09:32:15;100290.80;;;20.94
68745;BMP180;66104;45.456;11.064;2023-04-23T09:35:00;100287.00;;;21.00
68745;BMP180;66104;45.456;11.064;2023-04-23T09:37:39;100285.60;;;21.00
68745;BMP180;66104;45.456;11.064;2023-04-23T09:40:21;100282.80;;;21.00
68745;BMP180;66104;45.456;11.064;2023-04-23T09:42:59;100282.20;;;21.10
68745;BMP180;66104;45.456;11.064;2023-04-23T09:45:48;100282.00;;;21.10
68745;BMP180;66104;45.456;11.064;2023-04-23T09:48:25;100278.40;;;21.10
68745;BMP180;66104;45.456;11.064;2023-04-23T09:51:20;100279.80;;;21.20
68745;BMP180;66104;45.456;11.064;2023-04-23T09:54:03;100278.40;;;21.22
68745;BMP180;66104;45.456;11.064;2023-04-23T09:56:40;100276.20;;;21.30
68745;BMP180;66104;45.456;11.064;2023-04-23T09:59:28;100279.00;;;21.36
68745;BMP180;66104;45.456;11.064;2023-04-23T10:02:28;100283.60;;;21.40
68745;BMP180;66104;45.456;11.064;2023-04-23T10:05:19;100283.00;;;21.40
68745;BMP180;66104;45.456;11.064;2023-04-23T10:08:03;100280.00;;;21.40
68745;BMP180;66104;45.456;11.064;2023-04-23T10:10:40;100275.80;;;21.50
68745;BMP180;66104;45.456;11.064;2023-04-23T10:13:37;100278.00;;;21.48
68745;BMP180;66104;45.456;11.064;2023-04-23T10:16:15;100278.40;;;21.50
68745;BMP180;66104;45.456;11.064;2023-04-23T10:19:00;100281.20;;;21.50
68745;BMP180;66104;45.456;11.064;2023-04-23T10:21:42;100275.60;;;21.50
68745;BMP180;66104;45.456;11.064;2023-04-23T10:24:33;100275.40;;;21.60
68745;BMP180;66104;45.456;11.064;2023-04-23T10:27:16;100273.00;;;21.64
68745;BMP180;66104;45.456;11.064;2023-04-23T10:29:58;100274.80;;;21.70
68745;BMP180;66104;45.456;11.064;2023-04-23T10:32:40;100268.40;;;21.80
68745;BMP180;66104;45.456;11.064;2023-04-23T10:35:17;100272.00;;;21.82
68745;BMP180;66104;45.456;11.064;2023-04-23T10:37:56;100280.80;;;21.90
68745;BMP180;66104;45.456;11.064;2023-04-23T10:40:35;100275.80;;;22.00
68745;BMP180;66104;45.456;11.064;2023-04-23T10:43:15;100277.00;;;22.00
68745;BMP180;66104;45.456;11.064;2023-04-23T10:45:55;100275.20;;;22.10
68745;BMP180;66104;45.456;11.064;2023-04-23T10:48:53;100268.60;;;22.10
68745;BMP180;66104;45.456;11.064;2023-04-23T10:51:41;100267.20;;;22.14
68745;BMP180;66104;45.456;11.064;2023-04-23T10:54:27;100264.00;;;22.16
68745;BMP180;66104;45.456;11.064;2023-04-23T10:57:08;100263.40;;;22.20
68745;BMP180;66104;45.456;11.064;2023-04-23T10:59:56;100255.80;;;22.30
68745;BMP180;66104;45.456;11.064;2023-04-23T11:02:46;100259.40;;;22.40
68745;BMP180;66104;45.456;11.064;2023-04-23T11:05:24;100253.60;;;22.40
68745;BMP180;66104;45.456;11.064;2023-04-23T11:08:33;100253.40;;;22.50
68745;BMP180;66104;45.456;11.064;2023-04-23T11:11:13;100255.20;;;22.60
68745;BMP180;66104;45.456;11.064;2023-04-23T11:13:56;100253.20;;;22.60
68745;BMP180;66104;45.456;11.064;2023-04-23T11:16:34;100246.00;;;22.62
68745;BMP180;66104;45.456;11.064;2023-04-23T11:19:14;100243.40;;;22.70
68745;BMP180;66104;45.456;11.064;2023-04-23T11:22:04;100241.20;;;22.80
68745;BMP180;66104;45.456;11.064;2023-04-23T11:24:43;100234.80;;;22.84
68745;BMP180;66104;45.456;11.064;2023-04-23T11:27:24;100232.20;;;22.90
68745;BMP180;66104;45.456;11.064;2023-04-23T11:30:01;100227.40;;;22.96
68745;BMP180;66104;45.456;11.064;2023-04-23T11:32:39;100224.20;;;22.90
68745;BMP180;66104;45.456;11.064;2023-04-23T11:35:18;100218.20;;;22.90
68745;BMP180;66104;45.456;11.064;2023-04-23T11:37:55;100218.60;;;22.90
68745;BMP180;66104;45.456;11.064;2023-04-23T11:40:32;100214.20;;;22.94
68745;BMP180;66104;45.456;11.064;2023-04-23T11:43:08;100212.40;;;23.00
68745;BMP180;66104;45.456;11.064;2023-04-23T11:45:49;100210.60;;;23.00
68745;BMP180;66104;45.456;11.064;2023-04-23T11:48:26;100200.40;;;23.02
68745;BMP180;66104;45.456;11.064;2023-04-23T11:51:05;100200.20;;;23.10
68745;BMP180;66104;45.456;11.064;2023-04-23T11:53:49;100195.40;;;23.20
68745;BMP180;66104;45.456;11.064;2023-04-23T11:56:25;100194.00;;;23.30
68745;BMP180;66104;45.456;11.064;2023-04-23T11:59:06;100192.00;;;23.38
68745;BMP180;66104;45.456;11.064;2023-04-23T12:01:49;100187.40;;;23.40
68745;BMP180;66104;45.456;11.064;2023-04-23T12:04:29;100182.60;;;23.40
68745;BMP180;66104;45.456;11.064;2023-04-23T12:07:08;100177.60;;;23.40
68745;BMP180;66104;45.456;11.064;2023-04-23T12:10:01;100174.80;;;23.30
68745;BMP180;66104;45.456;11.064;2023-04-23T12:12:41;100163.20;;;23.30
68745;BMP180;66104;45.456;11.064;2023-04-23T12:15:19;100167.00;;;23.30
68745;BMP180;66104;45.456;11.064;2023-04-23T12:18:12;100166.60;;;23.30
68745;BMP180;66104;45.456;11.064;2023-04-23T12:20:49;100158.80;;;23.40
68745;BMP180;66104;45.456;11.064;2023-04-23T12:23:32;100158.00;;;23.46
68745;BMP180;66104;45.456;11.064;2023-04-23T12:26:14;100164.20;;;23.50
68745;BMP180;66104;45.456;11.064;2023-04-23T12:28:56;100169.00;;;23.50
68745;BMP180;66104;45.456;11.064;2023-04-23T12:31:35;100162.20;;;23.40
68745;BMP180;66104;45.456;11.064;2023-04-23T12:34:14;100164.60;;;23.34
68745;BMP180;66104;45.456;11.064;2023-04-23T12:36:55;100162.00;;;23.30
68745;BMP180;66104;45.456;11.064;2023-04-23T12:39:34;100163.20;;;23.30
68745;BMP180;66104;45.456;11.064;2023-04-23T12:42:11;100161.00;;;23.30
68745;BMP180;66104;45.456;11.064;2023-04-23T12:44:48;100158.20;;;23.30
68745;BMP180;66104;45.456;11.064;2023-04-23T12:47:29;100153.40;;;23.30
68745;BMP180;66104;45.456;11.064;2023-04-23T12:50:09;100156.20;;;23.40
68745;BMP180;66104;45.456;11.064;2023-04-23T12:52:48;100146.00;;;23.60
68745;BMP180;66104;45.456;11.064;2023-04-23T12:55:26;100141.20;;;23.70
68745;BMP180;66104;45.456;11.064;2023-04-23T12:58:04;100141.60;;;23.60
68745;BMP180;66104;45.456;11.064;2023-04-23T13:00:41;100141.80;;;23.50
68745;BMP180;66104;45.456;11.064;2023-04-23T13:03:19;100143.00;;;23.40
68745;BMP180;66104;45.456;11.064;2023-04-23T13:05:58;100134.40;;;23.30
68745;BMP180;66104;45.456;11.064;2023-04-23T13:08:35;100130.00;;;23.32
68745;BMP180;66104;45.456;11.064;2023-04-23T13:11:13;100126.40;;;23.46
68745;BMP180;66104;45.456;11.064;2023-04-23T13:13:51;100123.20;;;23.60
68745;BMP180;66104;45.456;11.064;2023-04-23T13:16:28;100122.00;;;23.60
68745;BMP180;66104;45.456;11.064;2023-04-23T13:19:05;100114.80;;;23.60
68745;BMP180;66104;45.456;11.064;2023-04-23T13:21:42;100109.80;;;23.60
68745;BMP180;66104;45.456;11.064;2023-04-23T13:24:19;100108.00;;;23.56
68745;BMP180;66104;45.456;11.064;2023-04-23T13:26:57;100102.60;;;23.50
68745;BMP180;66104;45.456;11.064;2023-04-23T13:29:36;100100.80;;;23.38
68745;BMP180;66104;45.456;11.064;2023-04-23T13:32:14;100102.00;;;23.20
68745;BMP180;66104;45.456;11.064;2023-04-23T13:34:55;100100.20;;;23.00
68745;BMP180;66104;45.456;11.064;2023-04-23T13:37:33;100100.20;;;22.92
68745;BMP180;66104;45.456;11.064;2023-04-23T13:40:15;100098.80;;;22.90
68745;BMP180;66104;45.456;11.064;2023-04-23T13:42:52;100093.00;;;22.90
68745;BMP180;66104;45.456;11.064;2023-04-23T13:45:30;100087.60;;;22.80
68745;BMP180;66104;45.456;11.064;2023-04-23T13:48:09;100088.80;;;22.82
68745;BMP180;66104;45.456;11.064;2023-04-23T13:50:47;100091.20;;;22.90
68745;BMP180;66104;45.456;11.064;2023-04-23T13:53:25;100084.80;;;22.90
68745;BMP180;66104;45.456;11.064;2023-04-23T13:56:04;100085.00;;;23.00
68745;BMP180;66104;45.456;11.064;2023-04-23T13:58:42;100084.20;;;23.00
68745;BMP180;66104;45.456;11.064;2023-04-23T14:01:20;100082.60;;;23.10
68745;BMP180;66104;45.456;11.064;2023-04-23T14:03:57;100079.80;;;23.10
68745;BMP180;66104;45.456;11.064;2023-04-23T14:06:34;100078.60;;;23.18
68745;BMP180;66104;45.456;11.064;2023-04-23T14:09:12;100072.80;;;23.20
68745;BMP180;66104;45.456;11.064;2023-04-23T14:11:50;100078.00;;;23.20
68745;BMP180;66104;45.456;11.064;2023-04-23T14:14:27;100068.60;;;23.10
68745;BMP180;66104;45.456;11.064;2023-04-23T14:17:05;100064.40;;;23.00
68745;BMP180;66104;45.456;11.064;2023-04-23T14:19:43;100060.80;;;23.00
68745;BMP180;66104;45.456;11.064;2023-04-23T14:22:19;100058.20;;;23.00
68745;BMP180;66104;45.456;11.064;2023-04-23T14:25:03;100058.00;;;23.00
68745;BMP180;66104;45.456;11.064;2023-04-23T14:27:51;100053.60;;;23.00
68745;BMP180;66104;45.456;11.064;2023-04-23T14:30:30;100051.40;;;23.00
68745;BMP180;66104;45.456;11.064;2023-04-23T14:33:07;100053.40;;;23.00
68745;BMP180;66104;45.456;11.064;2023-04-23T14:35:44;100053.60;;;22.90
68745;BMP180;66104;45.456;11.064;2023-04-23T14:38:21;100053.20;;;22.90
68745;BMP180;66104;45.456;11.064;2023-04-23T14:40:59;100052.40;;;22.80
68745;BMP180;66104;45.456;11.064;2023-04-23T14:43:37;100054.60;;;22.80
68745;BMP180;66104;45.456;11.064;2023-04-23T14:46:14;100052.60;;;22.70
68745;BMP180;66104;45.456;11.064;2023-04-23T14:48:53;100045.00;;;22.70
68745;BMP180;66104;45.456;11.064;2023-04-23T14:51:30;100042.40;;;22.70